sensor_id;sensor_type;location;lat;lon;timestamp;P1;durP1;ratioP1;P2;durP2;ratioP2
24995;SDS011;13016;52.162;21.034;2023-02-15T00:02:05;71.10;;;49.10;;
24995;SDS011;13016;52.162;21.034;2023-02-15T00:04:30;34.80;;;22.30;;
24995;SDS011;13016;52.162;21.034;2023-02-15T00:06:55;33.50;;;21.40;;
24995;SDS011;13016;52.162;21.034;2023-02-15T00:09:20;32.30;;;21.90;;
24995;SDS011;13016;52.162;21.034;2023-02-15T00:11:46;31.70;;;21.30;;
24995;SDS011;13016;52.162;21.034;2023-02-15T00:14:12;35.20;;;22.00;;
24995;SDS011;13016;52.162;21.034;2023-02-15T00:16:40;32.80;;;21.40;;
24995;SDS011;13016;52.162;21.034;2023-02-15T00:19:08;33.80;;;22.00;;
24995;SDS011;13016;52.162;21.034;2023-02-15T00:21:34;37.50;;;22.70;;
24995;SDS011;13016;52.162;21.034;2023-02-15T00:24:02;35.90;;;23.10;;
24995;SDS011;13016;52.162;21.034;2023-02-15T00:26:29;37.10;;;23.00;;
24995;SDS011;13016;52.162;21.034;2023-02-15T00:28:55;35.50;;;22.90;;
24995;SDS011;13016;52.162;21.034;2023-02-15T00:31:21;35.50;;;23.50;;
24995;SDS011;13016;52.162;21.034;2023-02-15T00:33:47;37.90;;;23.60;;
24995;SDS011;13016;52.162;21.034;2023-02-15T00:36:12;38.10;;;23.70;;
24995;SDS011;13016;52.162;21.034;2023-02-15T00:38:38;38.50;;;23.40;;
24995;SDS011;13016;52.162;21.034;2023-02-15T00:41:05;35.10;;;23.80;;
24995;SDS011;13016;52.162;21.034;2023-02-15T00:43:32;37.40;;;24.30;;
24995;SDS011;13016;52.162;21.034;2023-02-15T00:45:59;36.30;;;23.00;;
24995;SDS011;13016;52.162;21.034;2023-02-15T00:48:25;36.40;;;23.80;;
24995;SDS011;13016;52.162;21.034;2023-02-15T00:50:59;38.00;;;25.00;;
24995;SDS011;13016;52.162;21.034;2023-02-15T00:53:25;37.40;;;24.20;;
24995;SDS011;13016;52.162;21.034;2023-02-15T00:55:52;40.10;;;24.20;;
24995;SDS011;13016;52.162;21.034;2023-02-15T00:58:23;39.00;;;23.80;;
24995;SDS011;13016;52.162;21.034;2023-02-15T01:00:49;40.70;;;24.30;;
24995;SDS011;13016;52.162;21.034;2023-02-15T01:03:14;41.30;;;24.90;;
24995;SDS011;13016;52.162;21.034;2023-02-15T01:05:41;39.70;;;23.80;;
24995;SDS011;13016;52.162;21.034;2023-02-15T01:08:06;39.90;;;25.20;;
24995;SDS011;13016;52.162;21.034;2023-02-15T01:10:33;35.40;;;24.30;;
24995;SDS011;13016;52.162;21.034;2023-02-15T01:12:59;40.40;;;24.60;;
24995;SDS011;13016;52.162;21.034;2023-02-15T01:15:24;42.90;;;24.80;;
24995;SDS011;13016;52.162;21.034;2023-02-15T01:17:50;39.50;;;25.30;;
24995;SDS011;13016;52.162;21.034;2023-02-15T01:20:16;38.60;;;24.80;;
24995;SDS011;13016;52.162;21.034;2023-02-15T01:22:42;37.80;;;24.70;;
24995;SDS011;13016;52.162;21.034;2023-02-15T01:25:07;43.10;;;25.60;;
24995;SDS011;13016;52.162;21.034;2023-02-15T01:27:33;40.10;;;25.80;;
24995;SDS011;13016;52.162;21.034;2023-02-15T01:29:58;41.60;;;24.90;;
24995;SDS011;13016;52.162;21.034;2023-02-15T01:32:24;38.00;;;23.90;;
24995;SDS011;13016;52.162;21.034;2023-02-15T01:34:49;37.80;;;24.90;;
24995;SDS011;13016;52.162;21.034;2023-02-15T01:37:14;39.50;;;24.50;;
24995;SDS011;13016;52.162;21.034;2023-02-15T01:39:39;38.10;;;24.10;;
24995;SDS011;13016;52.162;21.034;2023-02-15T01:42:05;37.90;;;24.80;;
24995;SDS011;13016;52.162;21.034;2023-02-15T01:53:08;37.90;;;24.40;;
24995;SDS011;13016;52.162;21.034;2023-02-15T01:55:36;40.40;;;24.90;;
24995;SDS011;13016;52.162;21.034;2023-02-15T01:58:05;34.20;;;23.90;;
24995;SDS011;13016;52.162;21.034;2023-02-15T02:00:32;41.40;;;26.30;;
24995;SDS011;13016;52.162;21.034;2023-02-15T02:02:59;41.50;;;24.60;;
24995;SDS011;13016;52.162;21.034;2023-02-15T02:05:25;40.80;;;24.70;;
24995;SDS011;13016;52.162;21.034;2023-02-15T02:07:51;41.50;;;25.10;;
24995;SDS011;13016;52.162;21.034;2023-02-15T02:10:20;38.10;;;24.80;;
24995;SDS011;13016;52.162;21.034;2023-02-15T02:12:47;44.00;;;25.60;;
24995;SDS011;13016;52.162;21.034;2023-02-15T02:15:15;43.00;;;25.10;;
24995;SDS011;13016;52.162;21.034;2023-02-15T02:39:25;38.20;;;24.20;;
24995;SDS011;13016;52.162;21.034;2023-02-15T02:42:00;39.90;;;24.30;;
24995;SDS011;13016;52.162;21.034;2023-02-15T02:47:25;38.90;;;23.90;;
24995;SDS011;13016;52.162;21.034;2023-02-15T02:50:14;37.40;;;23.50;;
24995;SDS011;13016;52.162;21.034;2023-02-15T02:52:43;38.10;;;23.90;;
24995;SDS011;13016;52.162;21.034;2023-02-15T02:58:24;41.60;;;24.90;;
24995;SDS011;13016;52.162;21.034;2023-02-15T03:00:57;37.70;;;23.70;;
24995;SDS011;13016;52.162;21.034;2023-02-15T03:06:48;39.50;;;23.80;;
24995;SDS011;13016;52.162;21.034;2023-02-15T03:09:24;39.20;;;24.10;;
24995;SDS011;13016;52.162;21.034;2023-02-15T03:11:52;38.60;;;23.70;;
24995;SDS011;13016;52.162;21.034;2023-02-15T03:14:18;38.20;;;23.50;;
24995;SDS011;13016;52.162;21.034;2023-02-15T03:16:45;39.40;;;23.80;;
24995;SDS011;13016;52.162;21.034;2023-02-15T03:22:10;35.20;;;23.30;;
24995;SDS011;13016;52.162;21.034;2023-02-15T03:27:32;37.50;;;22.60;;
24995;SDS011;13016;52.162;21.034;2023-02-15T03:30:03;35.70;;;23.20;;
24995;SDS011;13016;52.162;21.034;2023-02-15T03:32:43;36.50;;;23.70;;
24995;SDS011;13016;52.162;21.034;2023-02-15T03:35:11;35.50;;;23.50;;
24995;SDS011;13016;52.162;21.034;2023-02-15T03:37:57;39.30;;;23.40;;
24995;SDS011;13016;52.162;21.034;2023-02-15T03:44:15;35.50;;;22.30;;
24995;SDS011;13016;52.162;21.034;2023-02-15T03:47:17;36.20;;;22.50;;
24995;SDS011;13016;52.162;21.034;2023-02-15T03:50:08;37.00;;;22.90;;
24995;SDS011;13016;52.162;21.034;2023-02-15T03:52:37;37.10;;;22.10;;
24995;SDS011;13016;52.162;21.034;2023-02-15T03:55:03;39.70;;;22.10;;
24995;SDS011;13016;52.162;21.034;2023-02-15T03:57:29;34.50;;;21.80;;
24995;SDS011;13016;52.162;21.034;2023-02-15T03:59:54;34.90;;;21.70;;
24995;SDS011;13016;52.162;21.034;2023-02-15T04:02:23;32.80;;;20.70;;
24995;SDS011;13016;52.162;21.034;2023-02-15T04:04:53;34.90;;;21.50;;
24995;SDS011;13016;52.162;21.034;2023-02-15T04:07:18;33.60;;;21.50;;
24995;SDS011;13016;52.162;21.034;2023-02-15T04:09:43;32.10;;;20.80;;
24995;SDS011;13016;52.162;21.034;2023-02-15T04:12:08;34.40;;;19.50;;
24995;SDS011;13016;52.162;21.034;2023-02-15T04:14:34;35.00;;;20.10;;
24995;SDS011;13016;52.162;21.034;2023-02-15T04:16:59;30.30;;;18.00;;
24995;SDS011;13016;52.162;21.034;2023-02-15T04:19:24;28.60;;;17.90;;
24995;SDS011;13016;52.162;21.034;2023-02-15T04:21:50;26.00;;;16.30;;
24995;SDS011;13016;52.162;21.034;2023-02-15T04:24:15;26.40;;;16.30;;
24995;SDS011;13016;52.162;21.034;2023-02-15T04:26:41;29.80;;;15.90;;
24995;SDS011;13016;52.162;21.034;2023-02-15T04:29:06;24.70;;;16.90;;
24995;SDS011;13016;52.162;21.034;2023-02-15T04:31:32;28.80;;;17.10;;
24995;SDS011;13016;52.162;21.034;2023-02-15T04:33:57;26.30;;;16.50;;
24995;SDS011;13016;52.162;21.034;2023-02-15T04:36:22;27.80;;;16.40;;
24995;SDS011;13016;52.162;21.034;2023-02-15T04:38:47;25.10;;;16.80;;
24995;SDS011;13016;52.162;21.034;2023-02-15T04:41:13;23.40;;;15.10;;
24995;SDS011;13016;52.162;21.034;2023-02-15T04:43:38;24.30;;;15.60;;
24995;SDS011;13016;52.162;21.034;2023-02-15T04:46:03;25.20;;;15.60;;
24995;SDS011;13016;52.162;21.034;2023-02-15T04:48:29;24.60;;;15.70;;
24995;SDS011;13016;52.162;21.034;2023-02-15T04:50:54;23.50;;;15.80;;
24995;SDS011;13016;52.162;21.034;2023-02-15T04:53:20;23.10;;;14.90;;
24995;SDS011;13016;52.162;21.034;2023-02-15T04:55:45;24.40;;;15.40;;
24995;SDS011;13016;52.162;21.034;2023-02-15T04:58:10;25.40;;;15.70;;
24995;SDS011;13016;52.162;21.034;2023-02-15T05:00:35;25.80;;;15.40;;
24995;SDS011;13016;52.162;21.034;2023-02-15T05:03:01;23.10;;;15.70;;
24995;SDS011;13016;52.162;21.034;2023-02-15T05:05:26;23.70;;;15.50;;
24995;SDS011;13016;52.162;21.034;2023-02-15T05:07:51;21.30;;;14.60;;
24995;SDS011;13016;52.162;21.034;2023-02-15T05:10:17;22.60;;;13.50;;
24995;SDS011;13016;52.162;21.034;2023-02-15T05:12:42;22.30;;;14.80;;
24995;SDS011;13016;52.162;21.034;2023-02-15T05:15:08;20.40;;;14.10;;
24995;SDS011;13016;52.162;21.034;2023-02-15T05:17:33;21.40;;;14.60;;
24995;SDS011;13016;52.162;21.034;2023-02-15T05:19:59;22.30;;;14.70;;
24995;SDS011;13016;52.162;21.034;2023-02-15T05:22:24;24.20;;;15.00;;
24995;SDS011;13016;52.162;21.034;2023-02-15T05:24:49;22.00;;;15.40;;
24995;SDS011;13016;52.162;21.034;2023-02-15T05:27:15;21.90;;;15.30;;
24995;SDS011;13016;52.162;21.034;2023-02-15T05:29:40;24.00;;;15.20;;
24995;SDS011;13016;52.162;21.034;2023-02-15T05:32:05;25.50;;;16.30;;
24995;SDS011;13016;52.162;21.034;2023-02-15T05:34:30;25.30;;;16.80;;
24995;SDS011;13016;52.162;21.034;2023-02-15T05:36:56;25.40;;;15.50;;
24995;SDS011;13016;52.162;21.034;2023-02-15T05:39:21;25.30;;;15.90;;
24995;SDS011;13016;52.162;21.034;2023-02-15T05:41:46;25.30;;;16.00;;
24995;SDS011;13016;52.162;21.034;2023-02-15T05:44:11;24.50;;;15.70;;
24995;SDS011;13016;52.162;21.034;2023-02-15T05:46:37;24.00;;;14.90;;
24995;SDS011;13016;52.162;21.034;2023-02-15T05:49:02;24.30;;;15.20;;
24995;SDS011;13016;52.162;21.034;2023-02-15T05:51:27;22.20;;;15.00;;
24995;SDS011;13016;52.162;21.034;2023-02-15T05:53:53;24.50;;;15.20;;
24995;SDS011;13016;52.162;21.034;2023-02-15T05:56:18;22.00;;;14.20;;
24995;SDS011;13016;52.162;21.034;2023-02-15T05:58:43;21.40;;;14.30;;
24995;SDS011;13016;52.162;21.034;2023-02-15T06:01:09;22.20;;;14.20;;
24995;SDS011;13016;52.162;21.034;2023-02-15T06:03:40;22.80;;;13.60;;
24995;SDS011;13016;52.162;21.034;2023-02-15T06:06:05;26.50;;;15.10;;
24995;SDS011;13016;52.162;21.034;2023-02-15T06:08:31;24.50;;;15.60;;
24995;SDS011;13016;52.162;21.034;2023-02-15T06:10:58;23.00;;;14.70;;
24995;SDS011;13016;52.162;21.034;2023-02-15T06:13:23;24.00;;;15.40;;
24995;SDS011;13016;52.162;21.034;2023-02-15T06:15:52;25.00;;;16.50;;
24995;SDS011;13016;52.162;21.034;2023-02-15T06:18:17;23.60;;;15.50;;
24995;SDS011;13016;52.162;21.034;2023-02-15T06:24:02;24.90;;;15.50;;
24995;SDS011;13016;52.162;21.034;2023-02-15T06:26:30;23.80;;;15.20;;
24995;SDS011;13016;52.162;21.034;2023-02-15T06:28:55;21.40;;;14.40;;
24995;SDS011;13016;52.162;21.034;2023-02-15T06:31:20;25.10;;;15.90;;
24995;SDS011;13016;52.162;21.034;2023-02-15T06:33:45;28.70;;;16.40;;
24995;SDS011;13016;52.162;21.034;2023-02-15T06:44:18;26.80;;;15.50;;
24995;SDS011;13016;52.162;21.034;2023-02-15T06:49:38;27.40;;;15.70;;
24995;SDS011;13016;52.162;21.034;2023-02-15T06:52:04;22.90;;;14.50;;
24995;SDS011;13016;52.162;21.034;2023-02-15T06:54:29;22.80;;;14.40;;
24995;SDS011;13016;52.162;21.034;2023-02-15T06:56:55;20.80;;;13.00;;
24995;SDS011;13016;52.162;21.034;2023-02-15T06:59:20;22.90;;;13.80;;
24995;SDS011;13016;52.162;21.034;2023-02-15T07:01:45;23.10;;;14.80;;
24995;SDS011;13016;52.162;21.034;2023-02-15T07:04:10;22.10;;;14.10;;
24995;SDS011;13016;52.162;21.034;2023-02-15T07:06:36;19.90;;;12.60;;
24995;SDS011;13016;52.162;21.034;2023-02-15T07:09:01;20.30;;;13.20;;
24995;SDS011;13016;52.162;21.034;2023-02-15T07:11:27;21.60;;;14.10;;
24995;SDS011;13016;52.162;21.034;2023-02-15T07:13:53;23.30;;;14.70;;
24995;SDS011;13016;52.162;21.034;2023-02-15T07:16:19;27.30;;;15.80;;
24995;SDS011;13016;52.162;21.034;2023-02-15T07:18:44;23.30;;;15.20;;
24995;SDS011;13016;52.162;21.034;2023-02-15T07:21:10;26.20;;;15.70;;
24995;SDS011;13016;52.162;21.034;2023-02-15T07:23:36;27.30;;;16.50;;
24995;SDS011;13016;52.162;21.034;2023-02-15T07:26:14;23.20;;;14.60;;
24995;SDS011;13016;52.162;21.034;2023-02-15T07:28:51;26.10;;;15.30;;
24995;SDS011;13016;52.162;21.034;2023-02-15T07:34:22;24.00;;;14.50;;
24995;SDS011;13016;52.162;21.034;2023-02-15T07:36:50;26.10;;;16.70;;
24995;SDS011;13016;52.162;21.034;2023-02-15T07:42:16;27.10;;;15.40;;
24995;SDS011;13016;52.162;21.034;2023-02-15T07:44:42;24.90;;;15.70;;
24995;SDS011;13016;52.162;21.034;2023-02-15T07:47:07;27.10;;;16.80;;
24995;SDS011;13016;52.162;21.034;2023-02-15T07:49:32;27.70;;;17.10;;
24995;SDS011;13016;52.162;21.034;2023-02-15T07:51:57;25.50;;;15.10;;
24995;SDS011;13016;52.162;21.034;2023-02-15T07:54:25;26.90;;;16.00;;
24995;SDS011;13016;52.162;21.034;2023-02-15T07:56:51;24.80;;;15.10;;
24995;SDS011;13016;52.162;21.034;2023-02-15T07:59:16;23.00;;;14.30;;
24995;SDS011;13016;52.162;21.034;2023-02-15T08:01:41;25.00;;;14.50;;
24995;SDS011;13016;52.162;21.034;2023-02-15T08:04:07;22.50;;;13.80;;
24995;SDS011;13016;52.162;21.034;2023-02-15T08:06:34;23.10;;;13.70;;
24995;SDS011;13016;52.162;21.034;2023-02-15T08:09:01;22.80;;;13.50;;
24995;SDS011;13016;52.162;21.034;2023-02-15T08:11:29;20.10;;;11.70;;
24995;SDS011;13016;52.162;21.034;2023-02-15T08:13:57;20.90;;;11.90;;
24995;SDS011;13016;52.162;21.034;2023-02-15T08:16:33;20.10;;;12.10;;
24995;SDS011;13016;52.162;21.034;2023-02-15T08:21:36;21.30;;;12.70;;
24995;SDS011;13016;52.162;21.034;2023-02-15T08:24:04;19.40;;;12.30;;
24995;SDS011;13016;52.162;21.034;2023-02-15T08:26:30;19.60;;;12.00;;
24995;SDS011;13016;52.162;21.034;2023-02-15T08:28:57;18.90;;;11.80;;
24995;SDS011;13016;52.162;21.034;2023-02-15T08:31:25;16.80;;;10.80;;
24995;SDS011;13016;52.162;21.034;2023-02-15T08:33:51;19.00;;;11.00;;
24995;SDS011;13016;52.162;21.034;2023-02-15T08:36:19;19.40;;;12.40;;
24995;SDS011;13016;52.162;21.034;2023-02-15T08:41:44;22.00;;;12.50;;
24995;SDS011;13016;52.162;21.034;2023-02-15T08:44:11;21.00;;;12.90;;
24995;SDS011;13016;52.162;21.034;2023-02-15T08:46:37;21.20;;;12.60;;
24995;SDS011;13016;52.162;21.034;2023-02-15T08:49:21;21.70;;;13.00;;
24995;SDS011;13016;52.162;21.034;2023-02-15T08:51:47;19.80;;;13.00;;
24995;SDS011;13016;52.162;21.034;2023-02-15T08:54:14;21.90;;;12.90;;
24995;SDS011;13016;52.162;21.034;2023-02-15T08:56:44;20.80;;;13.40;;
24995;SDS011;13016;52.162;21.034;2023-02-15T08:59:13;22.50;;;13.30;;
24995;SDS011;13016;52.162;21.034;2023-02-15T09:01:41;21.40;;;12.80;;
24995;SDS011;13016;52.162;21.034;2023-02-15T09:04:07;20.70;;;12.40;;
24995;SDS011;13016;52.162;21.034;2023-02-15T09:06:33;24.50;;;14.70;;
24995;SDS011;13016;52.162;21.034;2023-02-15T09:08:59;19.80;;;12.70;;
24995;SDS011;13016;52.162;21.034;2023-02-15T09:11:26;22.20;;;14.10;;
24995;SDS011;13016;52.162;21.034;2023-02-15T09:13:55;24.60;;;13.90;;
24995;SDS011;13016;52.162;21.034;2023-02-15T09:16:22;23.50;;;13.00;;
24995;SDS011;13016;52.162;21.034;2023-02-15T09:18:49;17.10;;;10.70;;
24995;SDS011;13016;52.162;21.034;2023-02-15T09:21:16;18.50;;;10.70;;
24995;SDS011;13016;52.162;21.034;2023-02-15T09:23:44;20.20;;;11.60;;
24995;SDS011;13016;52.162;21.034;2023-02-15T09:26:12;18.00;;;11.10;;
24995;SDS011;13016;52.162;21.034;2023-02-15T09:28:40;19.00;;;11.60;;
24995;SDS011;13016;52.162;21.034;2023-02-15T09:31:07;21.10;;;12.30;;
24995;SDS011;13016;52.162;21.034;2023-02-15T09:33:36;18.80;;;12.20;;
24995;SDS011;13016;52.162;21.034;2023-02-15T09:36:05;19.90;;;11.90;;
24995;SDS011;13016;52.162;21.034;2023-02-15T09:38:38;18.80;;;11.80;;
24995;SDS011;13016;52.162;21.034;2023-02-15T09:41:07;21.40;;;12.50;;
24995;SDS011;13016;52.162;21.034;2023-02-15T09:49:23;21.00;;;13.00;;
24995;SDS011;13016;52.162;21.034;2023-02-15T09:51:57;21.70;;;12.20;;
24995;SDS011;13016;52.162;21.034;2023-02-15T09:54:38;20.30;;;12.40;;
24995;SDS011;13016;52.162;21.034;2023-02-15T09:59:55;20.00;;;12.20;;
24995;SDS011;13016;52.162;21.034;2023-02-15T10:02:50;20.80;;;12.90;;
24995;SDS011;13016;52.162;21.034;2023-02-15T10:11:11;19.40;;;12.00;;
24995;SDS011;13016;52.162;21.034;2023-02-15T10:13:38;21.60;;;12.10;;
24995;SDS011;13016;52.162;21.034;2023-02-15T10:16:30;21.10;;;11.40;;
24995;SDS011;13016;52.162;21.034;2023-02-15T10:24:24;19.50;;;12.10;;
24995;SDS011;13016;52.162;21.034;2023-02-15T10:26:59;20.60;;;13.20;;
24995;SDS011;13016;52.162;21.034;2023-02-15T10:29:37;18.80;;;11.80;;
24995;SDS011;13016;52.162;21.034;2023-02-15T10:34:51;18.00;;;11.70;;
24995;SDS011;13016;52.162;21.034;2023-02-15T10:37:27;22.40;;;12.80;;
24995;SDS011;13016;52.162;21.034;2023-02-15T10:42:44;31.10;;;19.70;;
24995;SDS011;13016;52.162;21.034;2023-02-15T10:56:12;26.40;;;14.30;;
24995;SDS011;13016;52.162;21.034;2023-02-15T10:58:54;25.10;;;15.10;;
24995;SDS011;13016;52.162;21.034;2023-02-15T11:06:50;26.00;;;15.00;;
24995;SDS011;13016;52.162;21.034;2023-02-15T11:09:38;24.80;;;14.90;;
24995;SDS011;13016;52.162;21.034;2023-02-15T11:12:10;29.80;;;16.00;;
24995;SDS011;13016;52.162;21.034;2023-02-15T11:14:40;25.80;;;15.00;;
24995;SDS011;13016;52.162;21.034;2023-02-15T11:17:13;27.30;;;15.70;;
24995;SDS011;13016;52.162;21.034;2023-02-15T11:19:53;24.70;;;15.50;;
24995;SDS011;13016;52.162;21.034;2023-02-15T11:22:24;25.40;;;15.70;;
24995;SDS011;13016;52.162;21.034;2023-02-15T11:24:50;27.30;;;15.50;;
24995;SDS011;13016;52.162;21.034;2023-02-15T11:30:11;24.00;;;15.10;;
24995;SDS011;13016;52.162;21.034;2023-02-15T11:32:44;26.20;;;14.70;;
24995;SDS011;13016;52.162;21.034;2023-02-15T11:40:47;24.60;;;14.50;;
24995;SDS011;13016;52.162;21.034;2023-02-15T11:48:38;28.20;;;16.30;;
24995;SDS011;13016;52.162;21.034;2023-02-15T11:51:04;29.60;;;16.60;;
24995;SDS011;13016;52.162;21.034;2023-02-15T11:53:51;28.60;;;17.50;;
24995;SDS011;13016;52.162;21.034;2023-02-15T11:56:17;27.30;;;15.70;;
24995;SDS011;13016;52.162;21.034;2023-02-15T11:58:55;27.60;;;15.90;;
24995;SDS011;13016;52.162;21.034;2023-02-15T12:04:09;28.30;;;16.90;;
24995;SDS011;13016;52.162;21.034;2023-02-15T12:06:37;28.60;;;17.20;;
24995;SDS011;13016;52.162;21.034;2023-02-15T12:12:20;31.80;;;18.20;;
24995;SDS011;13016;52.162;21.034;2023-02-15T12:14:53;30.70;;;18.20;;
24995;SDS011;13016;52.162;21.034;2023-02-15T12:26:25;36.90;;;20.30;;
24995;SDS011;13016;52.162;21.034;2023-02-15T12:28:51;31.10;;;18.00;;
24995;SDS011;13016;52.162;21.034;2023-02-15T12:36:48;31.00;;;18.00;;
24995;SDS011;13016;52.162;21.034;2023-02-15T12:39:22;26.60;;;16.50;;
24995;SDS011;13016;52.162;21.034;2023-02-15T12:44:27;30.30;;;18.00;;
24995;SDS011;13016;52.162;21.034;2023-02-15T12:49:30;31.20;;;18.20;;
24995;SDS011;13016;52.162;21.034;2023-02-15T12:52:00;29.10;;;16.80;;
24995;SDS011;13016;52.162;21.034;2023-02-15T12:54:38;30.70;;;17.70;;
24995;SDS011;13016;52.162;21.034;2023-02-15T12:57:25;32.10;;;17.90;;
24995;SDS011;13016;52.162;21.034;2023-02-15T13:00:02;32.70;;;18.20;;
24995;SDS011;13016;52.162;21.034;2023-02-15T13:08:03;34.50;;;19.30;;
24995;SDS011;13016;52.162;21.034;2023-02-15T13:16:11;30.00;;;18.40;;
24995;SDS011;13016;52.162;21.034;2023-02-15T13:18:47;31.60;;;18.90;;
24995;SDS011;13016;52.162;21.034;2023-02-15T13:27:23;31.00;;;17.80;;
24995;SDS011;13016;52.162;21.034;2023-02-15T13:29:55;40.40;;;19.80;;
24995;SDS011;13016;52.162;21.034;2023-02-15T13:32:34;33.30;;;18.00;;
24995;SDS011;13016;52.162;21.034;2023-02-15T13:35:03;36.50;;;19.10;;
24995;SDS011;13016;52.162;21.034;2023-02-15T13:37:34;38.20;;;19.90;;
24995;SDS011;13016;52.162;21.034;2023-02-15T13:43:02;39.10;;;20.70;;
24995;SDS011;13016;52.162;21.034;2023-02-15T13:46:18;36.40;;;20.30;;
24995;SDS011;13016;52.162;21.034;2023-02-15T14:06:47;35.90;;;20.00;;
24995;SDS011;13016;52.162;21.034;2023-02-15T14:18:47;41.90;;;22.50;;
24995;SDS011;13016;52.162;21.034;2023-02-15T14:21:45;39.90;;;22.70;;
24995;SDS011;13016;52.162;21.034;2023-02-15T14:30:42;35.40;;;19.70;;
24995;SDS011;13016;52.162;21.034;2023-02-15T14:35:39;32.90;;;19.20;;
24995;SDS011;13016;52.162;21.034;2023-02-15T14:38:19;33.50;;;18.30;;
24995;SDS011;13016;52.162;21.034;2023-02-15T14:41:22;38.90;;;20.00;;
24995;SDS011;13016;52.162;21.034;2023-02-15T14:47:00;41.30;;;21.70;;
24995;SDS011;13016;52.162;21.034;2023-02-15T14:49:32;39.20;;;22.30;;
24995;SDS011;13016;52.162;21.034;2023-02-15T14:52:10;39.20;;;21.20;;
24995;SDS011;13016;52.162;21.034;2023-02-15T14:59:35;34.60;;;19.80;;
24995;SDS011;13016;52.162;21.034;2023-02-15T15:04:32;35.60;;;18.80;;
24995;SDS011;13016;52.162;21.034;2023-02-15T15:07:02;33.70;;;17.90;;
24995;SDS011;13016;52.162;21.034;2023-02-15T15:09:35;34.20;;;18.40;;
24995;SDS011;13016;52.162;21.034;2023-02-15T15:14:49;33.40;;;18.00;;
24995;SDS011;13016;52.162;21.034;2023-02-15T15:19:57;34.50;;;19.20;;
24995;SDS011;13016;52.162;21.034;2023-02-15T15:22:25;34.90;;;18.40;;
24995;SDS011;13016;52.162;21.034;2023-02-15T15:24:58;35.00;;;19.60;;
24995;SDS011;13016;52.162;21.034;2023-02-15T15:33:28;37.20;;;19.50;;
24995;SDS011;13016;52.162;21.034;2023-02-15T15:41:16;38.40;;;20.40;;
24995;SDS011;13016;52.162;21.034;2023-02-15T15:49:08;40.60;;;21.70;;
24995;SDS011;13016;52.162;21.034;2023-02-15T15:51:39;41.00;;;22.40;;
24995;SDS011;13016;52.162;21.034;2023-02-15T15:54:11;42.40;;;21.70;;
24995;SDS011;13016;52.162;21.034;2023-02-15T15:56:55;43.50;;;22.60;;
24995;SDS011;13016;52.162;21.034;2023-02-15T15:59:28;39.80;;;22.30;;
24995;SDS011;13016;52.162;21.034;2023-02-15T16:01:56;42.80;;;21.40;;
24995;SDS011;13016;52.162;21.034;2023-02-15T16:04:31;43.00;;;23.30;;
24995;SDS011;13016;52.162;21.034;2023-02-15T16:07:13;42.10;;;21.90;;
24995;SDS011;13016;52.162;21.034;2023-02-15T16:10:07;38.40;;;20.30;;
24995;SDS011;13016;52.162;21.034;2023-02-15T16:12:54;43.20;;;21.80;;
24995;SDS011;13016;52.162;21.034;2023-02-15T16:15:21;40.80;;;21.10;;
24995;SDS011;13016;52.162;21.034;2023-02-15T16:17:50;40.30;;;22.10;;
24995;SDS011;13016;52.162;21.034;2023-02-15T16:22:45;36.60;;;19.50;;
24995;SDS011;13016;52.162;21.034;2023-02-15T16:27:51;37.20;;;18.50;;
24995;SDS011;13016;52.162;21.034;2023-02-15T16:30:35;31.00;;;17.60;;
24995;SDS011;13016;52.162;21.034;2023-02-15T16:35:35;36.10;;;19.80;;
24995;SDS011;13016;52.162;21.034;2023-02-15T16:38:03;31.90;;;19.00;;
24995;SDS011;13016;52.162;21.034;2023-02-15T16:40:38;36.30;;;20.60;;
24995;SDS011;13016;52.162;21.034;2023-02-15T16:43:11;35.70;;;20.50;;
24995;SDS011;13016;52.162;21.034;2023-02-15T16:45:41;35.00;;;20.80;;
24995;SDS011;13016;52.162;21.034;2023-02-15T16:48:10;35.40;;;20.20;;
24995;SDS011;13016;52.162;21.034;2023-02-15T16:50:41;34.60;;;19.30;;
24995;SDS011;13016;52.162;21.034;2023-02-15T16:53:21;34.20;;;19.30;;
24995;SDS011;13016;52.162;21.034;2023-02-15T16:55:50;34.30;;;19.30;;
24995;SDS011;13016;52.162;21.034;2023-02-15T16:58:35;38.60;;;20.40;;
24995;SDS011;13016;52.162;21.034;2023-02-15T17:01:14;32.70;;;18.00;;
24995;SDS011;13016;52.162;21.034;2023-02-15T17:03:41;34.90;;;19.60;;
24995;SDS011;13016;52.162;21.034;2023-02-15T17:22:43;36.10;;;21.40;;
24995;SDS011;13016;52.162;21.034;2023-02-15T18:04:14;43.40;;;24.80;;
24995;SDS011;13016;52.162;21.034;2023-02-15T18:12:58;36.70;;;22.00;;
24995;SDS011;13016;52.162;21.034;2023-02-15T18:21:30;38.00;;;21.90;;
24995;SDS011;13016;52.162;21.034;2023-02-15T18:23:58;39.10;;;23.70;;
24995;SDS011;13016;52.162;21.034;2023-02-15T18:26:25;41.10;;;24.20;;
24995;SDS011;13016;52.162;21.034;2023-02-15T18:28:53;41.80;;;23.60;;
24995;SDS011;13016;52.162;21.034;2023-02-15T18:31:24;37.30;;;23.10;;
24995;SDS011;13016;52.162;21.034;2023-02-15T18:37:09;38.10;;;22.60;;
24995;SDS011;13016;52.162;21.034;2023-02-15T18:42:38;40.30;;;22.60;;
24995;SDS011;13016;52.162;21.034;2023-02-15T18:45:12;40.80;;;23.40;;
24995;SDS011;13016;52.162;21.034;2023-02-15T18:47:47;46.40;;;25.00;;
24995;SDS011;13016;52.162;21.034;2023-02-15T18:50:15;46.70;;;23.20;;
24995;SDS011;13016;52.162;21.034;2023-02-15T18:59:24;44.40;;;23.80;;
24995;SDS011;13016;52.162;21.034;2023-02-15T19:02:00;45.70;;;24.20;;
24995;SDS011;13016;52.162;21.034;2023-02-15T19:04:25;44.50;;;23.40;;
24995;SDS011;13016;52.162;21.034;2023-02-15T19:07:13;44.40;;;24.30;;
24995;SDS011;13016;52.162;21.034;2023-02-15T19:10:03;42.10;;;23.10;;
24995;SDS011;13016;52.162;21.034;2023-02-15T19:12:55;49.30;;;24.30;;
24995;SDS011;13016;52.162;21.034;2023-02-15T19:15:29;46.60;;;23.70;;
24995;SDS011;13016;52.162;21.034;2023-02-15T19:18:18;48.50;;;24.30;;
24995;SDS011;13016;52.162;21.034;2023-02-15T19:20:49;48.00;;;25.80;;
24995;SDS011;13016;52.162;21.034;2023-02-15T19:23:24;43.00;;;23.20;;
24995;SDS011;13016;52.162;21.034;2023-02-15T19:28:45;48.40;;;25.80;;
24995;SDS011;13016;52.162;21.034;2023-02-15T19:31:32;46.60;;;24.60;;
24995;SDS011;13016;52.162;21.034;2023-02-15T19:36:28;47.20;;;24.40;;
24995;SDS011;13016;52.162;21.034;2023-02-15T19:39:00;43.50;;;24.20;;
24995;SDS011;13016;52.162;21.034;2023-02-15T19:41:26;46.80;;;24.90;;
24995;SDS011;13016;52.162;21.034;2023-02-15T19:46:58;43.40;;;24.30;;
24995;SDS011;13016;52.162;21.034;2023-02-15T19:52:28;47.20;;;24.90;;
24995;SDS011;13016;52.162;21.034;2023-02-15T19:54:54;44.00;;;24.30;;
24995;SDS011;13016;52.162;21.034;2023-02-15T20:06:40;41.70;;;22.90;;
24995;SDS011;13016;52.162;21.034;2023-02-15T20:18:14;44.70;;;24.60;;
24995;SDS011;13016;52.162;21.034;2023-02-15T20:23:42;47.10;;;25.60;;
24995;SDS011;13016;52.162;21.034;2023-02-15T20:26:14;44.20;;;25.60;;
24995;SDS011;13016;52.162;21.034;2023-02-15T20:28:40;46.50;;;25.20;;
24995;SDS011;13016;52.162;21.034;2023-02-15T20:31:08;46.20;;;25.60;;